This is the latest recevied weather packets stored in our database for station/object IK6ZNK-3. If no packets are shown the sender has not sent any weather packets the latest 1 day(s).
| Time | Temp. | Humidity | Pressure | Rain* | Wind** | Luminosity | Snow |
|---|---|---|---|---|---|---|---|
| 1777984209 | 19.44° C | 69% | 1007.1 hPa | 0 mm | 1.79 m/s, 17° | - | - |
| 1777983608 | 20° C | 69% | 1007.3 hPa | 0 mm | 0.89 m/s, 39° | - | - |
| 1777983015 | 20° C | 70% | 1007.4 hPa | 0 mm | 0.89 m/s, 16° | - | - |
| 1777982410 | 20° C | 67% | 1007.4 hPa | 0 mm | 0.89 m/s, 16° | - | - |
| 1777981809 | 18.89° C | 70% | 1007.4 hPa | 0 mm | 1.79 m/s, 13° | - | - |
| 1777981209 | 18.33° C | 72% | 1007.4 hPa | 0 mm | 1.79 m/s, 6° | - | - |
| 1777980613 | 19.44° C | 71% | 1007.5 hPa | 0 mm | 0.89 m/s, 20° | - | - |
| 1777980010 | 20° C | 64% | 1007.4 hPa | 0 mm | 0.89 m/s, 48° | - | - |
| 1777979409 | 19.44° C | 58% | 1007.4 hPa | 0 mm | 0.89 m/s, 94° | - | - |
| 1777978808 | 19.44° C | 59% | 1007.5 hPa | 0 mm | 1.34 m/s, 87° | - | - |
| 1777978207 | 21.11° C | 58% | 1007.4 hPa | 0 mm | 1.79 m/s, 76° | - | - |
| 1777977608 | 20.56° C | 58% | 1007.7 hPa | 0 mm | 1.34 m/s, 34° | - | - |
| 1777977009 | 20.56° C | 58% | 1007.4 hPa | 0 mm | 0.89 m/s, 67° | - | - |
| 1777976409 | 19.44° C | 61% | 1007.7 hPa | 0 mm | 0.89 m/s, 39° | - | - |
| 1777975809 | 19.44° C | 61% | 1007.3 hPa | 0 mm | 1.79 m/s, 54° | - | - |
| 1777975214 | 18.89° C | 59% | 1007.5 hPa | 0 mm | 2.24 m/s, 35° | - | - |
| 1777974609 | 19.44° C | 60% | 1007.5 hPa | 0 mm | 3.13 m/s, 32° | - | - |
| 1777974012 | 18.89° C | 60% | 1007.5 hPa | 0 mm | 3.13 m/s, 36° | - | - |
| 1777973408 | 20° C | 58% | 1007.6 hPa | 0 mm | 2.24 m/s, 26° | - | - |
| 1777972813 | 19.44° C | 60% | 1007.5 hPa | 0 mm | 1.79 m/s, 42° | - | - |
| 1777972208 | 18.33° C | 63% | 1007.6 hPa | 0 mm | 2.68 m/s, 37° | - | - |
| 1777971608 | 19.44° C | 63% | 1007.6 hPa | 0 mm | 1.34 m/s, 25° | - | - |
| 1777971012 | 18.89° C | 63% | 1007.5 hPa | 0 mm | 1.34 m/s, 50° | - | - |
| 1777970408 | 17.78° C | 70% | 1007.5 hPa | 0 mm | 0.45 m/s, 63° | - | - |
| 1777969811 | 17.78° C | 70% | 1007.6 hPa | 0 mm | 0.89 m/s, 58° | - | - |
* Rain latest hour (hover to see other rain measurements)
** Current wind speed in m/s (hover to see current wind gust speed)